sensor_id;sensor_type;location;lat;lon;timestamp;temperature;humidity
3713;DHT22;1872;51.406;6.856;2022-08-19T00:00:21;19.20;99.90
3713;DHT22;1872;51.406;6.856;2022-08-19T00:02:48;19.10;99.90
3713;DHT22;1872;51.406;6.856;2022-08-19T00:05:14;19.10;99.90
3713;DHT22;1872;51.406;6.856;2022-08-19T00:07:44;19.10;99.90
3713;DHT22;1872;51.406;6.856;2022-08-19T00:10:11;19.10;99.90
3713;DHT22;1872;51.406;6.856;2022-08-19T00:12:40;19.00;99.90
3713;DHT22;1872;51.406;6.856;2022-08-19T00:15:10;19.00;99.90
3713;DHT22;1872;51.406;6.856;2022-08-19T00:17:39;19.00;99.90
3713;DHT22;1872;51.406;6.856;2022-08-19T00:20:06;19.00;99.90
3713;DHT22;1872;51.406;6.856;2022-08-19T00:22:32;18.90;99.90
3713;DHT22;1872;51.406;6.856;2022-08-19T00:24:58;18.90;99.90
3713;DHT22;1872;51.406;6.856;2022-08-19T00:27:26;18.90;99.90
3713;DHT22;1872;51.406;6.856;2022-08-19T00:29:52;18.90;99.90
3713;DHT22;1872;51.406;6.856;2022-08-19T00:32:17;18.80;99.90
3713;DHT22;1872;51.406;6.856;2022-08-19T00:34:43;18.80;99.90
3713;DHT22;1872;51.406;6.856;2022-08-19T00:37:09;18.80;99.90
3713;DHT22;1872;51.406;6.856;2022-08-19T00:39:35;18.70;99.90
3713;DHT22;1872;51.406;6.856;2022-08-19T00:42:03;18.70;99.90
3713;DHT22;1872;51.406;6.856;2022-08-19T00:44:29;18.70;99.90
3713;DHT22;1872;51.406;6.856;2022-08-19T00:46:57;18.70;99.90
3713;DHT22;1872;51.406;6.856;2022-08-19T00:49:36;18.70;99.90
3713;DHT22;1872;51.406;6.856;2022-08-19T00:52:08;18.70;99.90
3713;DHT22;1872;51.406;6.856;2022-08-19T00:54:36;18.70;99.90
3713;DHT22;1872;51.406;6.856;2022-08-19T00:57:06;18.60;99.90
3713;DHT22;1872;51.406;6.856;2022-08-19T00:59:36;18.60;99.90
3713;DHT22;1872;51.406;6.856;2022-08-19T01:02:04;18.60;99.90
3713;DHT22;1872;51.406;6.856;2022-08-19T01:04:30;18.60;99.90
3713;DHT22;1872;51.406;6.856;2022-08-19T01:06:58;18.50;99.90
3713;DHT22;1872;51.406;6.856;2022-08-19T01:09:24;18.50;99.90
3713;DHT22;1872;51.406;6.856;2022-08-19T01:11:51;18.50;99.90
3713;DHT22;1872;51.406;6.856;2022-08-19T01:14:17;18.50;99.90
3713;DHT22;1872;51.406;6.856;2022-08-19T01:16:45;18.50;99.90
3713;DHT22;1872;51.406;6.856;2022-08-19T01:19:31;18.50;99.90
3713;DHT22;1872;51.406;6.856;2022-08-19T01:22:03;18.50;99.90
3713;DHT22;1872;51.406;6.856;2022-08-19T01:24:31;18.50;99.90
3713;DHT22;1872;51.406;6.856;2022-08-19T01:26:59;18.40;99.90
3713;DHT22;1872;51.406;6.856;2022-08-19T01:29:25;18.40;99.90
3713;DHT22;1872;51.406;6.856;2022-08-19T01:31:50;18.40;99.90
3713;DHT22;1872;51.406;6.856;2022-08-19T01:34:18;18.40;99.90
3713;DHT22;1872;51.406;6.856;2022-08-19T01:36:47;18.40;99.90
3713;DHT22;1872;51.406;6.856;2022-08-19T01:39:19;18.30;99.90
3713;DHT22;1872;51.406;6.856;2022-08-19T01:41:47;18.30;99.90
3713;DHT22;1872;51.406;6.856;2022-08-19T01:44:15;18.30;99.90
3713;DHT22;1872;51.406;6.856;2022-08-19T01:46:45;18.30;99.90
3713;DHT22;1872;51.406;6.856;2022-08-19T01:49:12;18.30;99.90
3713;DHT22;1872;51.406;6.856;2022-08-19T01:51:42;18.20;99.90
3713;DHT22;1872;51.406;6.856;2022-08-19T01:54:10;18.20;99.90
3713;DHT22;1872;51.406;6.856;2022-08-19T01:56:37;18.20;99.90
3713;DHT22;1872;51.406;6.856;2022-08-19T01:59:08;18.10;99.90
3713;DHT22;1872;51.406;6.856;2022-08-19T02:01:35;18.10;99.90
3713;DHT22;1872;51.406;6.856;2022-08-19T02:04:01;18.10;99.90
3713;DHT22;1872;51.406;6.856;2022-08-19T02:06:29;18.00;99.90
3713;DHT22;1872;51.406;6.856;2022-08-19T02:08:55;18.00;99.90
3713;DHT22;1872;51.406;6.856;2022-08-19T02:11:25;18.00;99.90
3713;DHT22;1872;51.406;6.856;2022-08-19T02:13:53;17.90;99.90
3713;DHT22;1872;51.406;6.856;2022-08-19T02:16:19;17.90;99.90
3713;DHT22;1872;51.406;6.856;2022-08-19T02:18:46;17.90;99.90
3713;DHT22;1872;51.406;6.856;2022-08-19T02:21:16;17.90;99.90
3713;DHT22;1872;51.406;6.856;2022-08-19T02:23:42;17.90;99.90
3713;DHT22;1872;51.406;6.856;2022-08-19T02:26:08;17.80;99.90
3713;DHT22;1872;51.406;6.856;2022-08-19T02:28:34;17.80;99.90
3713;DHT22;1872;51.406;6.856;2022-08-19T02:31:00;17.80;99.90
3713;DHT22;1872;51.406;6.856;2022-08-19T02:33:26;17.80;99.90
3713;DHT22;1872;51.406;6.856;2022-08-19T02:35:52;17.80;99.90
3713;DHT22;1872;51.406;6.856;2022-08-19T02:38:18;17.80;99.90
3713;DHT22;1872;51.406;6.856;2022-08-19T02:40:57;17.80;99.90
3713;DHT22;1872;51.406;6.856;2022-08-19T02:43:23;17.80;99.90
3713;DHT22;1872;51.406;6.856;2022-08-19T02:45:50;17.80;99.90
3713;DHT22;1872;51.406;6.856;2022-08-19T02:48:19;17.80;99.90
3713;DHT22;1872;51.406;6.856;2022-08-19T02:50:49;17.70;99.90
3713;DHT22;1872;51.406;6.856;2022-08-19T02:53:29;17.70;99.90
3713;DHT22;1872;51.406;6.856;2022-08-19T02:56:06;17.70;99.90
3713;DHT22;1872;51.406;6.856;2022-08-19T02:58:32;17.70;99.90
3713;DHT22;1872;51.406;6.856;2022-08-19T03:00:58;17.60;99.90
3713;DHT22;1872;51.406;6.856;2022-08-19T03:03:26;17.60;99.90
3713;DHT22;1872;51.406;6.856;2022-08-19T03:06:01;17.60;99.90
3713;DHT22;1872;51.406;6.856;2022-08-19T03:08:29;17.60;99.90
3713;DHT22;1872;51.406;6.856;2022-08-19T03:10:55;17.70;99.90
3713;DHT22;1872;51.406;6.856;2022-08-19T03:13:21;17.60;99.90
3713;DHT22;1872;51.406;6.856;2022-08-19T03:15:50;17.60;99.90
3713;DHT22;1872;51.406;6.856;2022-08-19T03:18:18;17.60;99.90
3713;DHT22;1872;51.406;6.856;2022-08-19T03:20:46;17.60;99.90
3713;DHT22;1872;51.406;6.856;2022-08-19T03:23:16;17.60;99.90
3713;DHT22;1872;51.406;6.856;2022-08-19T03:25:47;17.60;99.90
3713;DHT22;1872;51.406;6.856;2022-08-19T03:28:14;17.60;99.90
3713;DHT22;1872;51.406;6.856;2022-08-19T03:30:44;17.50;99.90
3713;DHT22;1872;51.406;6.856;2022-08-19T03:33:22;17.50;99.90
3713;DHT22;1872;51.406;6.856;2022-08-19T03:35:58;17.50;99.90
3713;DHT22;1872;51.406;6.856;2022-08-19T03:38:24;17.50;99.90
3713;DHT22;1872;51.406;6.856;2022-08-19T03:40:49;17.50;99.90
3713;DHT22;1872;51.406;6.856;2022-08-19T03:43:15;17.50;99.90
3713;DHT22;1872;51.406;6.856;2022-08-19T03:45:43;17.50;99.90
3713;DHT22;1872;51.406;6.856;2022-08-19T03:48:08;17.50;99.90
3713;DHT22;1872;51.406;6.856;2022-08-19T03:50:39;17.50;99.90
3713;DHT22;1872;51.406;6.856;2022-08-19T03:53:05;17.60;99.90
3713;DHT22;1872;51.406;6.856;2022-08-19T03:55:31;17.60;99.90
3713;DHT22;1872;51.406;6.856;2022-08-19T03:57:57;17.60;99.90
3713;DHT22;1872;51.406;6.856;2022-08-19T04:00:25;17.60;99.90
3713;DHT22;1872;51.406;6.856;2022-08-19T04:02:51;17.60;99.90
3713;DHT22;1872;51.406;6.856;2022-08-19T04:05:29;17.60;99.90
3713;DHT22;1872;51.406;6.856;2022-08-19T04:07:54;17.60;99.90
3713;DHT22;1872;51.406;6.856;2022-08-19T04:10:24;17.50;99.90
3713;DHT22;1872;51.406;6.856;2022-08-19T04:12:50;17.50;99.90
3713;DHT22;1872;51.406;6.856;2022-08-19T04:15:16;17.50;99.90
3713;DHT22;1872;51.406;6.856;2022-08-19T04:17:44;17.40;99.90
3713;DHT22;1872;51.406;6.856;2022-08-19T04:20:10;17.40;99.90
3713;DHT22;1872;51.406;6.856;2022-08-19T04:22:36;17.40;99.90
3713;DHT22;1872;51.406;6.856;2022-08-19T04:25:02;17.30;99.90
3713;DHT22;1872;51.406;6.856;2022-08-19T04:27:28;17.30;99.90
3713;DHT22;1872;51.406;6.856;2022-08-19T04:29:54;17.30;99.90
3713;DHT22;1872;51.406;6.856;2022-08-19T04:32:20;17.30;99.90
3713;DHT22;1872;51.406;6.856;2022-08-19T04:34:49;17.20;99.90
3713;DHT22;1872;51.406;6.856;2022-08-19T04:37:14;17.30;99.90
3713;DHT22;1872;51.406;6.856;2022-08-19T04:39:40;17.20;99.90
3713;DHT22;1872;51.406;6.856;2022-08-19T04:42:24;17.20;99.90
3713;DHT22;1872;51.406;6.856;2022-08-19T04:45:07;17.20;99.90
3713;DHT22;1872;51.406;6.856;2022-08-19T04:47:36;17.20;99.90
3713;DHT22;1872;51.406;6.856;2022-08-19T04:50:05;17.20;99.90
3713;DHT22;1872;51.406;6.856;2022-08-19T04:52:31;17.20;99.90
3713;DHT22;1872;51.406;6.856;2022-08-19T04:54:58;17.20;99.90
3713;DHT22;1872;51.406;6.856;2022-08-19T04:57:24;17.20;99.90
3713;DHT22;1872;51.406;6.856;2022-08-19T04:59:53;17.20;99.90
3713;DHT22;1872;51.406;6.856;2022-08-19T05:02:19;17.20;99.90
3713;DHT22;1872;51.406;6.856;2022-08-19T05:04:48;17.20;99.90
3713;DHT22;1872;51.406;6.856;2022-08-19T05:07:13;17.20;99.90
3713;DHT22;1872;51.406;6.856;2022-08-19T05:09:39;17.20;99.90
3713;DHT22;1872;51.406;6.856;2022-08-19T05:12:05;17.20;99.90
3713;DHT22;1872;51.406;6.856;2022-08-19T05:14:33;17.30;99.90
3713;DHT22;1872;51.406;6.856;2022-08-19T05:17:02;17.30;99.90
3713;DHT22;1872;51.406;6.856;2022-08-19T05:19:28;17.30;99.90
3713;DHT22;1872;51.406;6.856;2022-08-19T05:22:12;17.40;99.90
3713;DHT22;1872;51.406;6.856;2022-08-19T05:24:59;17.40;99.90
3713;DHT22;1872;51.406;6.856;2022-08-19T05:27:25;17.50;99.90
3713;DHT22;1872;51.406;6.856;2022-08-19T05:29:51;17.50;99.90
3713;DHT22;1872;51.406;6.856;2022-08-19T05:32:17;17.50;99.90
3713;DHT22;1872;51.406;6.856;2022-08-19T05:34:45;17.60;99.90
3713;DHT22;1872;51.406;6.856;2022-08-19T05:37:10;17.70;99.90
3713;DHT22;1872;51.406;6.856;2022-08-19T05:39:37;17.70;99.90
3713;DHT22;1872;51.406;6.856;2022-08-19T05:42:10;17.80;99.90
3713;DHT22;1872;51.406;6.856;2022-08-19T05:44:41;17.80;99.90
3713;DHT22;1872;51.406;6.856;2022-08-19T05:47:13;17.90;99.90
3713;DHT22;1872;51.406;6.856;2022-08-19T05:49:43;18.00;99.90
3713;DHT22;1872;51.406;6.856;2022-08-19T05:52:11;18.10;99.90
3713;DHT22;1872;51.406;6.856;2022-08-19T05:54:39;18.20;99.90
3713;DHT22;1872;51.406;6.856;2022-08-19T05:57:10;18.30;99.90
3713;DHT22;1872;51.406;6.856;2022-08-19T05:59:38;18.40;99.90
3713;DHT22;1872;51.406;6.856;2022-08-19T06:02:06;18.50;99.90
3713;DHT22;1872;51.406;6.856;2022-08-19T06:04:34;18.60;99.90
3713;DHT22;1872;51.406;6.856;2022-08-19T06:07:08;18.70;99.90
3713;DHT22;1872;51.406;6.856;2022-08-19T06:09:33;18.80;99.90
3713;DHT22;1872;51.406;6.856;2022-08-19T06:12:03;19.10;99.90
3713;DHT22;1872;51.406;6.856;2022-08-19T06:14:33;19.20;99.90
3713;DHT22;1872;51.406;6.856;2022-08-19T06:17:00;19.30;99.90
3713;DHT22;1872;51.406;6.856;2022-08-19T06:19:28;19.50;99.90
3713;DHT22;1872;51.406;6.856;2022-08-19T06:22:13;19.50;99.90
3713;DHT22;1872;51.406;6.856;2022-08-19T06:24:39;19.50;99.90
3713;DHT22;1872;51.406;6.856;2022-08-19T06:27:04;19.50;99.90
3713;DHT22;1872;51.406;6.856;2022-08-19T06:29:33;19.60;99.90
3713;DHT22;1872;51.406;6.856;2022-08-19T06:32:02;19.70;99.90
3713;DHT22;1872;51.406;6.856;2022-08-19T06:34:33;20.00;99.90
3713;DHT22;1872;51.406;6.856;2022-08-19T06:37:02;20.60;99.90
3713;DHT22;1872;51.406;6.856;2022-08-19T06:39:31;21.00;99.90
3713;DHT22;1872;51.406;6.856;2022-08-19T06:42:00;21.30;99.90
3713;DHT22;1872;51.406;6.856;2022-08-19T06:44:33;21.80;99.90
3713;DHT22;1872;51.406;6.856;2022-08-19T06:47:03;22.30;99.90
3713;DHT22;1872;51.406;6.856;2022-08-19T06:49:30;22.60;99.90
3713;DHT22;1872;51.406;6.856;2022-08-19T06:51:59;22.80;99.90
3713;DHT22;1872;51.406;6.856;2022-08-19T06:54:28;23.00;99.90
3713;DHT22;1872;51.406;6.856;2022-08-19T06:57:00;23.10;99.90
3713;DHT22;1872;51.406;6.856;2022-08-19T06:59:30;23.30;99.90
3713;DHT22;1872;51.406;6.856;2022-08-19T07:02:02;23.50;99.90
3713;DHT22;1872;51.406;6.856;2022-08-19T07:04:31;23.60;99.90
3713;DHT22;1872;51.406;6.856;2022-08-19T07:07:18;23.40;99.90
3713;DHT22;1872;51.406;6.856;2022-08-19T07:09:45;23.30;99.90
3713;DHT22;1872;51.406;6.856;2022-08-19T07:12:14;23.10;99.90
3713;DHT22;1872;51.406;6.856;2022-08-19T07:14:43;23.00;99.90
3713;DHT22;1872;51.406;6.856;2022-08-19T07:17:11;22.90;99.90
3713;DHT22;1872;51.406;6.856;2022-08-19T07:19:38;22.70;99.90
3713;DHT22;1872;51.406;6.856;2022-08-19T07:22:06;22.70;99.90
3713;DHT22;1872;51.406;6.856;2022-08-19T07:24:33;22.70;99.90
3713;DHT22;1872;51.406;6.856;2022-08-19T07:27:02;22.60;99.90
3713;DHT22;1872;51.406;6.856;2022-08-19T07:29:30;22.70;99.90
3713;DHT22;1872;51.406;6.856;2022-08-19T07:31:58;22.90;99.90
3713;DHT22;1872;51.406;6.856;2022-08-19T07:34:28;23.10;99.90
3713;DHT22;1872;51.406;6.856;2022-08-19T07:36:54;23.50;99.90
3713;DHT22;1872;51.406;6.856;2022-08-19T07:39:27;23.80;99.90
3713;DHT22;1872;51.406;6.856;2022-08-19T07:41:54;24.20;99.90
3713;DHT22;1872;51.406;6.856;2022-08-19T07:44:23;24.60;99.90
3713;DHT22;1872;51.406;6.856;2022-08-19T07:46:53;25.00;99.90
3713;DHT22;1872;51.406;6.856;2022-08-19T07:49:20;25.30;99.90
3713;DHT22;1872;51.406;6.856;2022-08-19T07:52:00;25.60;99.90
3713;DHT22;1872;51.406;6.856;2022-08-19T07:54:30;25.90;99.90
3713;DHT22;1872;51.406;6.856;2022-08-19T07:56:57;26.10;99.90
3713;DHT22;1872;51.406;6.856;2022-08-19T07:59:24;26.10;99.90
3713;DHT22;1872;51.406;6.856;2022-08-19T08:01:50;26.10;99.90
3713;DHT22;1872;51.406;6.856;2022-08-19T08:04:17;26.20;99.90
3713;DHT22;1872;51.406;6.856;2022-08-19T08:07:02;26.30;99.90
3713;DHT22;1872;51.406;6.856;2022-08-19T08:09:47;26.40;99.90
3713;DHT22;1872;51.406;6.856;2022-08-19T08:12:25;26.50;99.90
3713;DHT22;1872;51.406;6.856;2022-08-19T08:14:56;26.50;99.90
3713;DHT22;1872;51.406;6.856;2022-08-19T08:17:25;26.50;99.90
3713;DHT22;1872;51.406;6.856;2022-08-19T08:19:51;26.40;99.90
3713;DHT22;1872;51.406;6.856;2022-08-19T08:22:19;26.40;99.90
3713;DHT22;1872;51.406;6.856;2022-08-19T08:25:25;26.40;99.90
3713;DHT22;1872;51.406;6.856;2022-08-19T08:27:51;26.30;99.90
3713;DHT22;1872;51.406;6.856;2022-08-19T08:30:20;26.50;99.90
3713;DHT22;1872;51.406;6.856;2022-08-19T08:32:46;26.80;99.90
3713;DHT22;1872;51.406;6.856;2022-08-19T08:35:14;27.00;99.90
3713;DHT22;1872;51.406;6.856;2022-08-19T08:37:42;27.10;99.90
3713;DHT22;1872;51.406;6.856;2022-08-19T08:40:44;27.10;99.90
3713;DHT22;1872;51.406;6.856;2022-08-19T08:43:29;27.10;99.90
3713;DHT22;1872;51.406;6.856;2022-08-19T08:46:07;27.10;99.90
3713;DHT22;1872;51.406;6.856;2022-08-19T08:48:39;26.80;99.90
3713;DHT22;1872;51.406;6.856;2022-08-19T08:51:10;26.60;99.90
3713;DHT22;1872;51.406;6.856;2022-08-19T08:53:36;26.50;99.90
3713;DHT22;1872;51.406;6.856;2022-08-19T08:56:06;26.30;99.90
3713;DHT22;1872;51.406;6.856;2022-08-19T08:59:16;26.20;99.90
3713;DHT22;1872;51.406;6.856;2022-08-19T09:01:35;26.20;99.90
3713;DHT22;1872;51.406;6.856;2022-08-19T09:04:06;26.20;99.90
3713;DHT22;1872;51.406;6.856;2022-08-19T09:09:23;26.20;99.90
3713;DHT22;1872;51.406;6.856;2022-08-19T09:11:58;26.10;99.90
3713;DHT22;1872;51.406;6.856;2022-08-19T09:17:03;26.10;99.90
3713;DHT22;1872;51.406;6.856;2022-08-19T09:22:20;26.20;99.90
3713;DHT22;1872;51.406;6.856;2022-08-19T09:24:52;26.40;99.90
3713;DHT22;1872;51.406;6.856;2022-08-19T09:27:19;26.50;99.90
3713;DHT22;1872;51.406;6.856;2022-08-19T09:29:46;26.70;99.90
3713;DHT22;1872;51.406;6.856;2022-08-19T09:32:14;26.90;99.90
3713;DHT22;1872;51.406;6.856;2022-08-19T09:34:40;27.00;99.90
3713;DHT22;1872;51.406;6.856;2022-08-19T09:37:09;27.10;99.90
3713;DHT22;1872;51.406;6.856;2022-08-19T09:39:38;27.20;99.90
3713;DHT22;1872;51.406;6.856;2022-08-19T09:42:06;27.20;99.90
3713;DHT22;1872;51.406;6.856;2022-08-19T09:44:38;27.30;99.90
3713;DHT22;1872;51.406;6.856;2022-08-19T09:47:04;27.20;99.90
3713;DHT22;1872;51.406;6.856;2022-08-19T09:49:30;27.10;99.60
3713;DHT22;1872;51.406;6.856;2022-08-19T09:51:56;27.00;99.60
3713;DHT22;1872;51.406;6.856;2022-08-19T09:54:23;26.80;99.50
3713;DHT22;1872;51.406;6.856;2022-08-19T09:56:49;26.80;99.50
3713;DHT22;1872;51.406;6.856;2022-08-19T09:59:15;26.80;99.30
3713;DHT22;1872;51.406;6.856;2022-08-19T10:01:41;26.60;99.10
3713;DHT22;1872;51.406;6.856;2022-08-19T10:04:07;26.60;99.20
3713;DHT22;1872;51.406;6.856;2022-08-19T10:06:37;26.70;99.20
3713;DHT22;1872;51.406;6.856;2022-08-19T10:09:06;26.70;99.00
3713;DHT22;1872;51.406;6.856;2022-08-19T10:11:41;26.70;99.00
3713;DHT22;1872;51.406;6.856;2022-08-19T10:14:07;26.60;98.80
3713;DHT22;1872;51.406;6.856;2022-08-19T10:16:33;26.60;98.80
3713;DHT22;1872;51.406;6.856;2022-08-19T10:19:01;26.60;98.80
3713;DHT22;1872;51.406;6.856;2022-08-19T10:21:31;26.50;98.70
3713;DHT22;1872;51.406;6.856;2022-08-19T10:23:59;26.50;98.70
3713;DHT22;1872;51.406;6.856;2022-08-19T10:26:28;26.50;98.80
3713;DHT22;1872;51.406;6.856;2022-08-19T10:28:55;26.60;98.80
3713;DHT22;1872;51.406;6.856;2022-08-19T10:31:27;26.60;98.70
3713;DHT22;1872;51.406;6.856;2022-08-19T10:33:54;26.60;98.60
3713;DHT22;1872;51.406;6.856;2022-08-19T10:36:28;26.60;98.50
3713;DHT22;1872;51.406;6.856;2022-08-19T10:38:55;26.60;98.40
3713;DHT22;1872;51.406;6.856;2022-08-19T10:41:26;26.50;98.20
3713;DHT22;1872;51.406;6.856;2022-08-19T10:43:53;26.40;98.00
3713;DHT22;1872;51.406;6.856;2022-08-19T10:46:21;26.30;97.90
3713;DHT22;1872;51.406;6.856;2022-08-19T10:48:49;26.20;97.90
3713;DHT22;1872;51.406;6.856;2022-08-19T10:51:23;26.20;98.00
3713;DHT22;1872;51.406;6.856;2022-08-19T10:54:07;26.20;98.10
3713;DHT22;1872;51.406;6.856;2022-08-19T10:56:34;26.20;98.00
3713;DHT22;1872;51.406;6.856;2022-08-19T10:59:25;26.20;98.00
3713;DHT22;1872;51.406;6.856;2022-08-19T11:01:59;26.20;97.90
3713;DHT22;1872;51.406;6.856;2022-08-19T11:04:27;26.10;97.80
3713;DHT22;1872;51.406;6.856;2022-08-19T11:06:53;26.00;97.80
3713;DHT22;1872;51.406;6.856;2022-08-19T11:09:22;25.90;97.80
3713;DHT22;1872;51.406;6.856;2022-08-19T11:12:02;25.90;97.90
3713;DHT22;1872;51.406;6.856;2022-08-19T11:14:31;25.90;97.60
3713;DHT22;1872;51.406;6.856;2022-08-19T11:16:59;25.90;97.40
3713;DHT22;1872;51.406;6.856;2022-08-19T11:19:25;25.90;97.50
3713;DHT22;1872;51.406;6.856;2022-08-19T11:21:52;26.00;97.40
3713;DHT22;1872;51.406;6.856;2022-08-19T11:24:22;26.10;97.30
3713;DHT22;1872;51.406;6.856;2022-08-19T11:26:53;26.20;97.20
3713;DHT22;1872;51.406;6.856;2022-08-19T11:29:22;26.30;97.30
3713;DHT22;1872;51.406;6.856;2022-08-19T11:31:51;26.40;97.30
3713;DHT22;1872;51.406;6.856;2022-08-19T11:34:22;26.50;97.30
3713;DHT22;1872;51.406;6.856;2022-08-19T11:36:51;26.50;97.60
3713;DHT22;1872;51.406;6.856;2022-08-19T11:39:20;26.60;97.20
3713;DHT22;1872;51.406;6.856;2022-08-19T11:41:47;26.70;97.20
3713;DHT22;1872;51.406;6.856;2022-08-19T11:44:13;26.80;97.10
3713;DHT22;1872;51.406;6.856;2022-08-19T11:46:40;26.70;96.70
3713;DHT22;1872;51.406;6.856;2022-08-19T11:49:07;26.70;96.40
3713;DHT22;1872;51.406;6.856;2022-08-19T11:51:34;26.60;96.10
3713;DHT22;1872;51.406;6.856;2022-08-19T11:54:05;26.50;96.20
3713;DHT22;1872;51.406;6.856;2022-08-19T11:56:32;26.50;96.10
3713;DHT22;1872;51.406;6.856;2022-08-19T11:59:00;26.30;96.10
3713;DHT22;1872;51.406;6.856;2022-08-19T12:01:27;26.30;96.00
3713;DHT22;1872;51.406;6.856;2022-08-19T12:03:54;26.20;95.80
3713;DHT22;1872;51.406;6.856;2022-08-19T12:06:23;26.20;96.00
3713;DHT22;1872;51.406;6.856;2022-08-19T12:08:53;26.20;96.00
3713;DHT22;1872;51.406;6.856;2022-08-19T12:11:21;26.20;95.80
3713;DHT22;1872;51.406;6.856;2022-08-19T12:13:55;26.20;95.60
3713;DHT22;1872;51.406;6.856;2022-08-19T12:16:23;26.30;95.20
3713;DHT22;1872;51.406;6.856;2022-08-19T12:18:50;26.30;95.00
3713;DHT22;1872;51.406;6.856;2022-08-19T12:21:25;26.30;94.80
3713;DHT22;1872;51.406;6.856;2022-08-19T12:23:54;26.30;94.40
3713;DHT22;1872;51.406;6.856;2022-08-19T12:26:22;26.20;94.60
3713;DHT22;1872;51.406;6.856;2022-08-19T12:28:47;26.30;95.00
3713;DHT22;1872;51.406;6.856;2022-08-19T12:31:14;26.40;95.10
3713;DHT22;1872;51.406;6.856;2022-08-19T12:33:43;26.40;95.10
3713;DHT22;1872;51.406;6.856;2022-08-19T12:36:12;26.30;94.80
3713;DHT22;1872;51.406;6.856;2022-08-19T12:38:39;26.20;94.70
3713;DHT22;1872;51.406;6.856;2022-08-19T12:41:11;26.20;94.60
3713;DHT22;1872;51.406;6.856;2022-08-19T12:43:39;26.20;94.40
3713;DHT22;1872;51.406;6.856;2022-08-19T12:46:08;26.30;94.50
3713;DHT22;1872;51.406;6.856;2022-08-19T12:48:34;26.30;94.40
3713;DHT22;1872;51.406;6.856;2022-08-19T12:51:00;26.30;94.40
3713;DHT22;1872;51.406;6.856;2022-08-19T12:53:27;26.40;94.20
3713;DHT22;1872;51.406;6.856;2022-08-19T12:56:00;26.50;94.60
3713;DHT22;1872;51.406;6.856;2022-08-19T12:58:27;26.60;94.60
3713;DHT22;1872;51.406;6.856;2022-08-19T13:00:52;26.70;94.20
3713;DHT22;1872;51.406;6.856;2022-08-19T13:03:18;26.70;94.10
3713;DHT22;1872;51.406;6.856;2022-08-19T13:05:44;26.70;94.40
3713;DHT22;1872;51.406;6.856;2022-08-19T13:08:10;26.70;94.60
3713;DHT22;1872;51.406;6.856;2022-08-19T13:10:36;26.80;94.30
3713;DHT22;1872;51.406;6.856;2022-08-19T13:13:06;26.80;93.90
3713;DHT22;1872;51.406;6.856;2022-08-19T13:15:38;26.80;93.70
3713;DHT22;1872;51.406;6.856;2022-08-19T13:18:09;26.80;93.40
3713;DHT22;1872;51.406;6.856;2022-08-19T13:20:37;26.70;93.30
3713;DHT22;1872;51.406;6.856;2022-08-19T13:23:04;26.70;93.40
3713;DHT22;1872;51.406;6.856;2022-08-19T13:25:32;26.80;93.30
3713;DHT22;1872;51.406;6.856;2022-08-19T13:27:59;26.90;93.00
3713;DHT22;1872;51.406;6.856;2022-08-19T13:30:25;26.80;92.80
3713;DHT22;1872;51.406;6.856;2022-08-19T13:33:10;26.80;92.50
3713;DHT22;1872;51.406;6.856;2022-08-19T13:35:37;26.70;92.60
3713;DHT22;1872;51.406;6.856;2022-08-19T13:38:03;26.60;92.50
3713;DHT22;1872;51.406;6.856;2022-08-19T13:40:32;26.60;92.70
3713;DHT22;1872;51.406;6.856;2022-08-19T13:43:02;26.50;92.90
3713;DHT22;1872;51.406;6.856;2022-08-19T13:45:31;26.50;92.80
3713;DHT22;1872;51.406;6.856;2022-08-19T13:48:04;26.40;92.70
3713;DHT22;1872;51.406;6.856;2022-08-19T13:50:38;26.40;92.70
3713;DHT22;1872;51.406;6.856;2022-08-19T13:53:08;26.40;92.40
3713;DHT22;1872;51.406;6.856;2022-08-19T13:55:34;26.40;92.10
3713;DHT22;1872;51.406;6.856;2022-08-19T13:58:01;26.30;92.10
3713;DHT22;1872;51.406;6.856;2022-08-19T14:00:31;26.30;92.10
3713;DHT22;1872;51.406;6.856;2022-08-19T14:02:58;26.40;92.20
3713;DHT22;1872;51.406;6.856;2022-08-19T14:05:25;26.30;92.20
3713;DHT22;1872;51.406;6.856;2022-08-19T14:07:51;26.40;92.10
3713;DHT22;1872;51.406;6.856;2022-08-19T14:10:20;26.40;91.80
3713;DHT22;1872;51.406;6.856;2022-08-19T14:12:46;26.30;91.70
3713;DHT22;1872;51.406;6.856;2022-08-19T14:15:14;26.30;91.80
3713;DHT22;1872;51.406;6.856;2022-08-19T14:17:42;26.40;91.90
3713;DHT22;1872;51.406;6.856;2022-08-19T14:20:09;26.50;92.20
3713;DHT22;1872;51.406;6.856;2022-08-19T14:22:40;26.50;92.20
3713;DHT22;1872;51.406;6.856;2022-08-19T14:25:08;26.60;92.10
3713;DHT22;1872;51.406;6.856;2022-08-19T14:27:36;26.70;92.00
3713;DHT22;1872;51.406;6.856;2022-08-19T14:30:04;26.70;91.90
3713;DHT22;1872;51.406;6.856;2022-08-19T14:32:30;26.80;91.70
3713;DHT22;1872;51.406;6.856;2022-08-19T14:34:56;26.80;91.60
3713;DHT22;1872;51.406;6.856;2022-08-19T14:37:22;26.80;91.50
3713;DHT22;1872;51.406;6.856;2022-08-19T14:39:50;26.80;91.20
3713;DHT22;1872;51.406;6.856;2022-08-19T14:42:18;26.80;91.30
3713;DHT22;1872;51.406;6.856;2022-08-19T14:44:44;26.80;91.40
3713;DHT22;1872;51.406;6.856;2022-08-19T14:47:10;26.80;91.50
3713;DHT22;1872;51.406;6.856;2022-08-19T14:49:38;26.90;91.70
3713;DHT22;1872;51.406;6.856;2022-08-19T14:52:06;26.90;91.70
3713;DHT22;1872;51.406;6.856;2022-08-19T14:54:33;27.00;91.60
3713;DHT22;1872;51.406;6.856;2022-08-19T14:56:59;27.00;91.40
3713;DHT22;1872;51.406;6.856;2022-08-19T14:59:25;27.00;91.30
3713;DHT22;1872;51.406;6.856;2022-08-19T15:01:51;26.90;90.90
3713;DHT22;1872;51.406;6.856;2022-08-19T15:04:16;26.90;91.00
3713;DHT22;1872;51.406;6.856;2022-08-19T15:06:42;26.80;91.00
3713;DHT22;1872;51.406;6.856;2022-08-19T15:09:09;26.80;90.90
3713;DHT22;1872;51.406;6.856;2022-08-19T15:11:35;26.70;91.00
3713;DHT22;1872;51.406;6.856;2022-08-19T15:14:05;26.70;91.10
3713;DHT22;1872;51.406;6.856;2022-08-19T15:16:32;26.70;91.00
3713;DHT22;1872;51.406;6.856;2022-08-19T15:18:59;26.70;90.60
3713;DHT22;1872;51.406;6.856;2022-08-19T15:21:26;26.60;90.60
3713;DHT22;1872;51.406;6.856;2022-08-19T15:23:54;26.60;90.90
3713;DHT22;1872;51.406;6.856;2022-08-19T15:26:22;26.50;90.60
3713;DHT22;1872;51.406;6.856;2022-08-19T15:28:48;26.50;90.70
3713;DHT22;1872;51.406;6.856;2022-08-19T15:31:18;26.50;90.60
3713;DHT22;1872;51.406;6.856;2022-08-19T15:33:44;26.40;90.50
3713;DHT22;1872;51.406;6.856;2022-08-19T15:36:10;26.40;90.70
3713;DHT22;1872;51.406;6.856;2022-08-19T15:38:39;26.40;90.50
3713;DHT22;1872;51.406;6.856;2022-08-19T15:41:19;26.30;90.10
3713;DHT22;1872;51.406;6.856;2022-08-19T15:43:54;26.30;89.70
3713;DHT22;1872;51.406;6.856;2022-08-19T15:46:22;26.30;90.30
3713;DHT22;1872;51.406;6.856;2022-08-19T15:48:49;26.30;90.10
3713;DHT22;1872;51.406;6.856;2022-08-19T15:51:15;26.30;89.90
3713;DHT22;1872;51.406;6.856;2022-08-19T15:53:41;26.30;90.20
3713;DHT22;1872;51.406;6.856;2022-08-19T15:56:08;26.20;90.10
3713;DHT22;1872;51.406;6.856;2022-08-19T15:58:34;26.20;90.00
3713;DHT22;1872;51.406;6.856;2022-08-19T16:01:18;26.10;90.00
3713;DHT22;1872;51.406;6.856;2022-08-19T16:04:05;26.10;90.00
3713;DHT22;1872;51.406;6.856;2022-08-19T16:06:52;26.10;90.10
3713;DHT22;1872;51.406;6.856;2022-08-19T16:09:20;26.10;90.20
3713;DHT22;1872;51.406;6.856;2022-08-19T16:11:46;26.10;90.10
3713;DHT22;1872;51.406;6.856;2022-08-19T16:14:21;26.10;90.00
3713;DHT22;1872;51.406;6.856;2022-08-19T16:16:47;26.10;90.00
3713;DHT22;1872;51.406;6.856;2022-08-19T16:19:15;26.10;89.60
3713;DHT22;1872;51.406;6.856;2022-08-19T16:21:46;26.10;89.10